EGPB/LSI METAR and TAF weather

Enter ICAO airport designator
Station Type Date Time Source
EGPB METAR 2019/08/24 19:50 UTC NOAA

EGPB 241950Z VRB02KT CAVOK 13/12 Q1017 NOSIG


Station Type Date Time Source
EGPB Decoded METAR 2019/08/24 19:50 UTC NOAA

Station name not available
Aug 24, 2019 - 03:50 PM EDT / 2019.08.24 1950 UTC
Wind: Variable at 2 MPH (2 KT):0
Visibility: greater than 7 mile(s):0
Temperature: 55 F (13 C)
Dew Point: 53 F (12 C)
Relative Humidity: 93%
Pressure (altimeter): 30.03 in. Hg (1017 hPa)
ob: EGPB 241950Z VRB02KT CAVOK 13/12 Q1017 NOSIG
cycle: 20

Station Type Date Time Source
EGPB TAF UTC NOAA

Error!

Example: see airport list